Spirit of New Zealand — ZMSV — position and weather

sailwx.info

Track history (hours):
 
Tides and Currents Weather Stations Pressure Air Temp Water Temp Dewpoint Dewpoint Depression Visibility Wind Speed Wind Dir Waves Ship Positions

Spirit of New Zealand

Last reported at 2017-Nov-19 22:42 UTC. Time now 2017-Nov-20 18:59 UTC.
Position S 36°25' E 174°49'.

Length 45 m; draft 4.1 m.

Type: Passenger vessel. MMSI: 512201000.

Date/timePositionNaut miles runAvg speedWind from/ knotsBaromVisibWave heightAir tempDewpointWater temp
2017-Nov-19 22:42S 36°25' E 174°49'0 0.0
2017-Nov-19 22:30S 36°25' E 174°49'0 0.1
2017-Nov-19 22:00S 36°25' E 174°49'0 0.1
2017-Nov-19 21:12S 36°25' E 174°49'0 0.0
2017-Nov-19 20:42S 36°25' E 174°49'0 0.0
2017-Nov-19 20:30S 36°25' E 174°49'0 0.0
2017-Nov-19 19:48S 36°25' E 174°49'0 0.0
2017-Nov-19 18:30S 36°25' E 174°49'0 0.0
2017-Nov-19 17:36S 36°25' E 174°49'0 0.0
2017-Nov-19 17:18S 36°25' E 174°49'0 0.0
2017-Nov-19 17:00S 36°25' E 174°49'0 0.0
2017-Nov-19 16:30S 36°25' E 174°49'0 0.0
2017-Nov-19 16:00S 36°25' E 174°49'0 0.0
2017-Nov-19 15:00S 36°25' E 174°49'0 0.0
2017-Nov-19 14:30S 36°25' E 174°49'0 0.0
2017-Nov-19 13:36S 36°25' E 174°49'0 0.0
2017-Nov-19 13:30S 36°25' E 174°49'0 0.0
2017-Nov-19 13:00S 36°25' E 174°49'0 0.0
2017-Nov-19 12:30S 36°25' E 174°49'0 0.0
2017-Nov-19 11:54S 36°25' E 174°49'0 0.0
2017-Nov-19 11:24S 36°25' E 174°49'0 0.0
2017-Nov-19 10:48S 36°25' E 174°49'0 0.0
2017-Nov-19 08:48S 36°25' E 174°49'0 0.0
2017-Nov-19 08:30S 36°25' E 174°49'0 0.0
2017-Nov-19 08:00S 36°25' E 174°49'0 0.1
2017-Nov-19 07:24S 36°25' E 174°49'0 0.0
2017-Nov-19 07:00S 36°25' E 174°49'0 0.1
2017-Nov-19 06:30S 36°25' E 174°49'0 0.0
2017-Nov-19 05:54S 36°25' E 174°49'0 0.1
2017-Nov-19 05:30S 36°25' E 174°49'4 8.6
2017-Nov-19 05:00S 36°29' E 174°46'3 4.9
2017-Nov-19 04:27S 36°30' E 174°44'0 0.0
2017-Nov-19 03:57S 36°30' E 174°44'0 0.0
2017-Nov-19 03:27S 36°30' E 174°44'0 0.0
2017-Nov-19 02:57S 36°30' E 174°44'0 0.0
2017-Nov-19 02:27S 36°30' E 174°44'0 0.0
2017-Nov-19 01:57S 36°30' E 174°44'0 0.0
2017-Nov-19 01:21S 36°30' E 174°44'0 0.1
2017-Nov-19 00:57S 36°30' E 174°44'0 0.0
2017-Nov-19 00:09S 36°30' E 174°44'0 0.1
2017-Nov-18 23:34S 36°31' E 174°44'0 0.1
2017-Nov-18 23:30S 36°31' E 174°44'3 5.6
2017-Nov-18 23:00S 36°32' E 174°47'5 9.4
2017-Nov-18 22:30S 36°33' E 174°52'5 9.1
2017-Nov-18 22:00S 36°36' E 174°57'5 9.5
2017-Nov-18 21:30S 36°39' E 175°01'16 0.6
2017-Nov-17 21:09S 36°50' E 174°47'1 5.1
2017-Nov-17 21:00S 36°50' E 174°46'0 0.0
2017-Nov-17 19:42S 36°51' E 174°46'0 0.0
2017-Nov-16 23:30S 36°51' E 174°46'0 0.0
2017-Nov-16 22:06S 36°51' E 174°46'0 0.0
2017-Nov-16 21:36S 36°51' E 174°46'0 0.0
2017-Nov-16 21:12S 36°51' E 174°46'0 0.0
2017-Nov-16 20:59S 36°51' E 174°46'1 2.9
2017-Nov-16 20:30S 36°50' E 174°48'2 4.6
2017-Nov-16 20:00S 36°49' E 174°50'3 6.6
2017-Nov-16 19:30S 36°49' E 174°54'1 2.7
2017-Nov-16 19:00S 36°49' E 174°56'0 0.0
2017-Nov-16 18:12S 36°49' E 174°56'0 0.0
2017-Nov-16 18:00S 36°49' E 174°56'0 0.0
2017-Nov-16 17:06S 36°49' E 174°56'0 0.0
2017-Nov-16 17:00S 36°49' E 174°56'1 0.1
2017-Nov-16 04:00S 36°48' E 174°56'5 8.2
2017-Nov-16 03:24S 36°43' E 174°55'4 9.4
2017-Nov-16 03:00S 36°41' E 174°51'4 6.6
2017-Nov-16 02:24S 36°38' E 174°47'2 5.7
2017-Nov-16 02:00S 36°38' E 174°50'3 6.2
2017-Nov-16 01:30S 36°36' E 174°52'3 5.2
2017-Nov-16 00:59S 36°36' E 174°48'0 0.1
2017-Nov-16 00:29S 36°36' E 174°48'0 0.0
2017-Nov-15 23:59S 36°36' E 174°48'0 0.0
2017-Nov-15 23:29S 36°36' E 174°48'0 0.0
2017-Nov-15 22:59S 36°36' E 174°48'0 0.0
2017-Nov-15 22:29S 36°36' E 174°48'0 0.0
2017-Nov-15 21:59S 36°36' E 174°48'0 0.0
2017-Nov-15 21:29S 36°36' E 174°48'0 0.0
2017-Nov-15 20:53S 36°36' E 174°48'0 0.0
2017-Nov-15 20:29S 36°36' E 174°48'0 0.0
2017-Nov-15 19:53S 36°36' E 174°48'0 0.0
2017-Nov-15 19:29S 36°36' E 174°48'0 0.0
2017-Nov-15 18:59S 36°36' E 174°48'0 0.0
2017-Nov-15 18:29S 36°36' E 174°48'0 0.3
2017-Nov-15 18:00S 36°35' E 174°48'2 4.4
2017-Nov-15 17:30S 36°35' E 174°51'2 4.1
2017-Nov-15 16:56S 36°37' E 174°53'0 0.0
2017-Nov-15 16:26S 36°37' E 174°53'0 0.0
2017-Nov-15 15:56S 36°37' E 174°53'0 0.0
2017-Nov-15 15:20S 36°37' E 174°53'0 0.0
2017-Nov-15 14:56S 36°37' E 174°53'0 0.0
2017-Nov-15 14:26S 36°37' E 174°53'0 0.0
2017-Nov-15 13:56S 36°37' E 174°53'0 0.0
2017-Nov-15 13:14S 36°37' E 174°53'0 0.0
2017-Nov-15 12:56S 36°37' E 174°53'0 0.0
2017-Nov-15 12:26S 36°37' E 174°53'0 0.0
2017-Nov-15 11:56S 36°37' E 174°53'0 0.0
2017-Nov-15 11:20S 36°37' E 174°53'0 0.0
2017-Nov-15 10:56S 36°37' E 174°53'0 0.0
2017-Nov-15 10:26S 36°37' E 174°53'0 0.0
2017-Nov-15 09:56S 36°37' E 174°53'0 0.1
2017-Nov-15 09:26S 36°37' E 174°53'1 2.4
2017-Nov-15 09:01S 36°36' E 174°52'2 4.3
2017-Nov-15 08:30S 36°34' E 174°51'3 5.1
2017-Nov-15 08:01S 36°32' E 174°51'3 5.0
2017-Nov-15 07:31S 36°29' E 174°50'2 3.5
2017-Nov-15 07:01S 36°31' E 174°52'3 5.1
2017-Nov-15 06:30S 36°32' E 174°54'3 5.6
2017-Nov-15 06:01S 36°34' E 174°57'3 6.0
2017-Nov-15 05:30S 36°36' E 174°60'3 5.8
2017-Nov-15 05:01S 36°37' E 175°03'13 5.6
2017-Nov-15 02:39S 36°49' E 174°56'2 2.3
2017-Nov-15 01:52S 36°51' E 174°56'1 0.8
2017-Nov-15 00:52S 36°51' E 174°56'2 0.1
2017-Nov-14 06:06S 36°48' E 174°55'3 6.9
2017-Nov-14 05:41S 36°46' E 174°57'1 8.0
2017-Nov-14 05:30S 36°44' E 174°56'4 8.7
2017-Nov-14 05:00S 36°40' E 174°54'4 8.9
2017-Nov-14 04:30S 36°36' E 174°52'3 7.0
2017-Nov-14 04:00S 36°34' E 174°48'1 2.5
2017-Nov-14 03:26S 36°36' E 174°48'0 0.0
2017-Nov-14 02:56S 36°36' E 174°48'0 0.1
2017-Nov-14 02:26S 36°36' E 174°48'0 0.1
2017-Nov-14 01:56S 36°36' E 174°48'0 0.1
2017-Nov-14 01:20S 36°36' E 174°48'0 0.1
2017-Nov-14 00:56S 36°36' E 174°48'0 0.0
2017-Nov-14 00:26S 36°36' E 174°48'0 0.1
2017-Nov-13 23:56S 36°36' E 174°48'0 0.0
2017-Nov-13 23:26S 36°36' E 174°48'0 0.0
2017-Nov-13 22:56S 36°36' E 174°48'0 0.0
2017-Nov-13 22:26S 36°36' E 174°48'0 0.0
2017-Nov-13 21:56S 36°36' E 174°48'10 0.5
2017-Nov-13 02:00S 36°25' E 174°48'2 3.7
2017-Nov-13 01:29S 36°27' E 174°47'3 6.2
2017-Nov-13 01:00S 36°30' E 174°49'2 4.5
2017-Nov-13 00:30S 36°32' E 174°50'1 1.1
2017-Nov-13 00:00S 36°32' E 174°50'4 7.0
2017-Nov-12 23:30S 36°34' E 174°53'3 4.3
2017-Nov-12 22:42S 36°36' E 174°56'1 7.0
2017-Nov-12 22:30S 36°38' E 174°55'9 7.6
2017-Nov-12 21:22S 36°45' E 174°49'3 7.4
2017-Nov-12 20:55S 36°48' E 174°49'3 4.9
2017-Nov-12 20:13S 36°50' E 174°46'0 0.0
2017-Nov-12 03:09S 36°51' E 174°46'0 0.2
2017-Nov-12 03:00S 36°50' E 174°46'1 1.3
2017-Nov-12 02:30S 36°50' E 174°45'1 0.3
2017-Nov-12 00:32S 36°50' E 174°46'0 0.0
2017-Nov-11 20:52S 36°51' E 174°46'1 0.9
2017-Nov-11 20:16S 36°50' E 174°46'3 8.4
2017-Nov-11 19:56S 36°50' E 174°49'4 7.9
2017-Nov-11 19:28S 36°49' E 174°54'4 7.5
2017-Nov-11 18:59S 36°47' E 174°57'5 7.6
2017-Nov-11 18:21S 36°45' E 175°03'  
Track history (hours):
 
Tides and Currents Weather Stations Pressure Air Temp Water Temp Dewpoint Dewpoint Depression Visibility Wind Speed Wind Dir Waves Ship Positions

Spirit of New Zealand

Last reported at 2017-Nov-19 22:42 UTC. Time now 2017-Nov-20 18:59 UTC.
Position S 36°25' E 174°49'.

Length 45 m; draft 4.1 m.

Type: Passenger vessel. MMSI: 512201000.

Date/timePositionNaut miles runAvg speedWind from/ knotsBaromVisibWave heightAir tempDewpointWater temp
2017-Nov-19 22:42S 36°25' E 174°49'0 0.0
2017-Nov-19 22:30S 36°25' E 174°49'0 0.1
2017-Nov-19 22:00S 36°25' E 174°49'0 0.1
2017-Nov-19 21:12S 36°25' E 174°49'0 0.0
2017-Nov-19 20:42S 36°25' E 174°49'0 0.0
2017-Nov-19 20:30S 36°25' E 174°49'0 0.0
2017-Nov-19 19:48S 36°25' E 174°49'0 0.0
2017-Nov-19 18:30S 36°25' E 174°49'0 0.0
2017-Nov-19 17:36S 36°25' E 174°49'0 0.0
2017-Nov-19 17:18S 36°25' E 174°49'0 0.0
2017-Nov-19 17:00S 36°25' E 174°49'0 0.0
2017-Nov-19 16:30S 36°25' E 174°49'0 0.0
2017-Nov-19 16:00S 36°25' E 174°49'0 0.0
2017-Nov-19 15:00S 36°25' E 174°49'0 0.0
2017-Nov-19 14:30S 36°25' E 174°49'0 0.0
2017-Nov-19 13:36S 36°25' E 174°49'0 0.0
2017-Nov-19 13:30S 36°25' E 174°49'0 0.0
2017-Nov-19 13:00S 36°25' E 174°49'0 0.0
2017-Nov-19 12:30S 36°25' E 174°49'0 0.0
2017-Nov-19 11:54S 36°25' E 174°49'0 0.0
2017-Nov-19 11:24S 36°25' E 174°49'0 0.0
2017-Nov-19 10:48S 36°25' E 174°49'0 0.0
2017-Nov-19 08:48S 36°25' E 174°49'0 0.0
2017-Nov-19 08:30S 36°25' E 174°49'0 0.0
2017-Nov-19 08:00S 36°25' E 174°49'0 0.1
2017-Nov-19 07:24S 36°25' E 174°49'0 0.0
2017-Nov-19 07:00S 36°25' E 174°49'0 0.1
2017-Nov-19 06:30S 36°25' E 174°49'0 0.0
2017-Nov-19 05:54S 36°25' E 174°49'0 0.1
2017-Nov-19 05:30S 36°25' E 174°49'4 8.6
2017-Nov-19 05:00S 36°29' E 174°46'3 4.9
2017-Nov-19 04:27S 36°30' E 174°44'0 0.0
2017-Nov-19 03:57S 36°30' E 174°44'0 0.0
2017-Nov-19 03:27S 36°30' E 174°44'0 0.0
2017-Nov-19 02:57S 36°30' E 174°44'0 0.0
2017-Nov-19 02:27S 36°30' E 174°44'0 0.0
2017-Nov-19 01:57S 36°30' E 174°44'0 0.0
2017-Nov-19 01:21S 36°30' E 174°44'0 0.1
2017-Nov-19 00:57S 36°30' E 174°44'0 0.0
2017-Nov-19 00:09S 36°30' E 174°44'0 0.1
2017-Nov-18 23:34S 36°31' E 174°44'0 0.1
2017-Nov-18 23:30S 36°31' E 174°44'3 5.6
2017-Nov-18 23:00S 36°32' E 174°47'5 9.4
2017-Nov-18 22:30S 36°33' E 174°52'5 9.1
2017-Nov-18 22:00S 36°36' E 174°57'5 9.5
2017-Nov-18 21:30S 36°39' E 175°01'16 0.6
2017-Nov-17 21:09S 36°50' E 174°47'1 5.1
2017-Nov-17 21:00S 36°50' E 174°46'0 0.0
2017-Nov-17 19:42S 36°51' E 174°46'0 0.0
2017-Nov-16 23:30S 36°51' E 174°46'0 0.0
2017-Nov-16 22:06S 36°51' E 174°46'0 0.0
2017-Nov-16 21:36S 36°51' E 174°46'0 0.0
2017-Nov-16 21:12S 36°51' E 174°46'0 0.0
2017-Nov-16 20:59S 36°51' E 174°46'1 2.9
2017-Nov-16 20:30S 36°50' E 174°48'2 4.6
2017-Nov-16 20:00S 36°49' E 174°50'3 6.6
2017-Nov-16 19:30S 36°49' E 174°54'1 2.7
2017-Nov-16 19:00S 36°49' E 174°56'0 0.0
2017-Nov-16 18:12S 36°49' E 174°56'0 0.0
2017-Nov-16 18:00S 36°49' E 174°56'0 0.0
2017-Nov-16 17:06S 36°49' E 174°56'0 0.0
2017-Nov-16 17:00S 36°49' E 174°56'1 0.1
2017-Nov-16 04:00S 36°48' E 174°56'5 8.2
2017-Nov-16 03:24S 36°43' E 174°55'4 9.4
2017-Nov-16 03:00S 36°41' E 174°51'4 6.6
2017-Nov-16 02:24S 36°38' E 174°47'2 5.7
2017-Nov-16 02:00S 36°38' E 174°50'3 6.2
2017-Nov-16 01:30S 36°36' E 174°52'3 5.2
2017-Nov-16 00:59S 36°36' E 174°48'0 0.1
2017-Nov-16 00:29S 36°36' E 174°48'0 0.0
2017-Nov-15 23:59S 36°36' E 174°48'0 0.0
2017-Nov-15 23:29S 36°36' E 174°48'0 0.0
2017-Nov-15 22:59S 36°36' E 174°48'0 0.0
2017-Nov-15 22:29S 36°36' E 174°48'0 0.0
2017-Nov-15 21:59S 36°36' E 174°48'0 0.0
2017-Nov-15 21:29S 36°36' E 174°48'0 0.0
2017-Nov-15 20:53S 36°36' E 174°48'0 0.0
2017-Nov-15 20:29S 36°36' E 174°48'0 0.0
2017-Nov-15 19:53S 36°36' E 174°48'0 0.0
2017-Nov-15 19:29S 36°36' E 174°48'0 0.0
2017-Nov-15 18:59S 36°36' E 174°48'0 0.0
2017-Nov-15 18:29S 36°36' E 174°48'0 0.3
2017-Nov-15 18:00S 36°35' E 174°48'2 4.4
2017-Nov-15 17:30S 36°35' E 174°51'2 4.1
2017-Nov-15 16:56S 36°37' E 174°53'0 0.0
2017-Nov-15 16:26S 36°37' E 174°53'0 0.0
2017-Nov-15 15:56S 36°37' E 174°53'0 0.0
2017-Nov-15 15:20S 36°37' E 174°53'0 0.0
2017-Nov-15 14:56S 36°37' E 174°53'0 0.0
2017-Nov-15 14:26S 36°37' E 174°53'0 0.0
2017-Nov-15 13:56S 36°37' E 174°53'0 0.0
2017-Nov-15 13:14S 36°37' E 174°53'0 0.0
2017-Nov-15 12:56S 36°37' E 174°53'0 0.0
2017-Nov-15 12:26S 36°37' E 174°53'0 0.0
2017-Nov-15 11:56S 36°37' E 174°53'0 0.0
2017-Nov-15 11:20S 36°37' E 174°53'0 0.0
2017-Nov-15 10:56S 36°37' E 174°53'0 0.0
2017-Nov-15 10:26S 36°37' E 174°53'0 0.0
2017-Nov-15 09:56S 36°37' E 174°53'0 0.1
2017-Nov-15 09:26S 36°37' E 174°53'1 2.4
2017-Nov-15 09:01S 36°36' E 174°52'2 4.3
2017-Nov-15 08:30S 36°34' E 174°51'3 5.1
2017-Nov-15 08:01S 36°32' E 174°51'3 5.0
2017-Nov-15 07:31S 36°29' E 174°50'2 3.5
2017-Nov-15 07:01S 36°31' E 174°52'3 5.1
2017-Nov-15 06:30S 36°32' E 174°54'3 5.6
2017-Nov-15 06:01S 36°34' E 174°57'3 6.0
2017-Nov-15 05:30S 36°36' E 174°60'3 5.8
2017-Nov-15 05:01S 36°37' E 175°03'13 5.6
2017-Nov-15 02:39S 36°49' E 174°56'2 2.3
2017-Nov-15 01:52S 36°51' E 174°56'1 0.8
2017-Nov-15 00:52S 36°51' E 174°56'2 0.1
2017-Nov-14 06:06S 36°48' E 174°55'3 6.9
2017-Nov-14 05:41S 36°46' E 174°57'1 8.0
2017-Nov-14 05:30S 36°44' E 174°56'4 8.7
2017-Nov-14 05:00S 36°40' E 174°54'4 8.9
2017-Nov-14 04:30S 36°36' E 174°52'3 7.0
2017-Nov-14 04:00S 36°34' E 174°48'1 2.5
2017-Nov-14 03:26S 36°36' E 174°48'0 0.0
2017-Nov-14 02:56S 36°36' E 174°48'0 0.1
2017-Nov-14 02:26S 36°36' E 174°48'0 0.1
2017-Nov-14 01:56S 36°36' E 174°48'0 0.1
2017-Nov-14 01:20S 36°36' E 174°48'0 0.1
2017-Nov-14 00:56S 36°36' E 174°48'0 0.0
2017-Nov-14 00:26S 36°36' E 174°48'0 0.1
2017-Nov-13 23:56S 36°36' E 174°48'0 0.0
2017-Nov-13 23:26S 36°36' E 174°48'0 0.0
2017-Nov-13 22:56S 36°36' E 174°48'0 0.0
2017-Nov-13 22:26S 36°36' E 174°48'0 0.0
2017-Nov-13 21:56S 36°36' E 174°48'10 0.5
2017-Nov-13 02:00S 36°25' E 174°48'2 3.7
2017-Nov-13 01:29S 36°27' E 174°47'3 6.2
2017-Nov-13 01:00S 36°30' E 174°49'2 4.5
2017-Nov-13 00:30S 36°32' E 174°50'1 1.1
2017-Nov-13 00:00S 36°32' E 174°50'4 7.0
2017-Nov-12 23:30S 36°34' E 174°53'3 4.3
2017-Nov-12 22:42S 36°36' E 174°56'1 7.0
2017-Nov-12 22:30S 36°38' E 174°55'9 7.6
2017-Nov-12 21:22S 36°45' E 174°49'3 7.4
2017-Nov-12 20:55S 36°48' E 174°49'3 4.9
2017-Nov-12 20:13S 36°50' E 174°46'0 0.0
2017-Nov-12 03:09S 36°51' E 174°46'0 0.2
2017-Nov-12 03:00S 36°50' E 174°46'1 1.3
2017-Nov-12 02:30S 36°50' E 174°45'1 0.3
2017-Nov-12 00:32S 36°50' E 174°46'0 0.0
2017-Nov-11 20:52S 36°51' E 174°46'1 0.9
2017-Nov-11 20:16S 36°50' E 174°46'3 8.4
2017-Nov-11 19:56S 36°50' E 174°49'4 7.9
2017-Nov-11 19:28S 36°49' E 174°54'4 7.5
2017-Nov-11 18:59S 36°47' E 174°57'5 7.6
2017-Nov-11 18:21S 36°45' E 175°03'  

Dump ship's entire track history